Hayward, CA

1:53 AM PDT on May 07, 2015 (GMT -0700)
Cherry Land | | Change Station
CLOSE
Current Station
Personal Weather Station
Location: Hayward, CA
Elevation: 62 ft
Nearby Weather Stations

Elev 62 ft 37.67 °N, 122.10 °W | Updated 15 minutes ago

Clear
Clear
50.2 °F
Feels Like 50.2 °F
N
3.7
Wind Variable Wind from SSW

Today
High -- | Low -- °F
--% Chance of Precip.
Yesterday
High -- | Low -- °F
Precip. -- in
6:06 AM 8:03 PM
Waning Gibbous, 89% visible
Pressure 29.84 in
Visibility 10.0 miles
Clouds Clear
Dew Point 46 °F
Humidity 85%
Rainfall 0.00 in
Snow Depth Not available.
UV 0 out of 12
Pollen 6.60 out of 12
Air Quality Not available.
Flu Activity Sporadic
METAR KHWD 070754Z 21006KT 10SM CLR 12/07 A2981 RMK AO2 SLP104 T01170072 401890111

More Conditions Fewer Conditions

Pressure 29.84 in
Visibility 10.0 miles
Clouds Clear
Dew Point 46 °F
Humidity 85%
Rainfall 0.00 in
Snow Depth Not available.
UV 0 out of 12
Pollen 6.60 out of 12
Air Quality Not available.
Flu Activity Sporadic
METAR KHWD 070754Z 21006KT 10SM CLR 12/07 A2981 RMK AO2 SLP104 T01170072 401890111

More Conditions Fewer Conditions

10-Day Weather Forecast

Almanac

Astronomy

May. 07, 2015 Rise Set
Actual Time
Civil Twilight
Nautical Twilight
Astronomical Twilight
Moon
Length of Visible Light
Length of Day
Tomorrow will be .
, % of the Moon is Illuminated

Today's Extremes

State Highs State Lows

Community

WunderPhotos

Upload Photos

1,819,126 photos uploaded!

WunderBlogs® & News

Nearby

Air Quality

  Air Quality AQ Index Pollutant
Not available.

Snow Depth

Station Depth Elevation

Earthquake Activity

City Distance Mag. Time & Date
Minimum magnitude displayed is 2.5.

Coastal Water Temperatures

Place Temperature

Stations

Nearby Weather Stations

Station Location Temp. Windchill Dew Point Humidity Wind Precip. Elev Updated Type